createdAt,value
2019-02-08T00:01:43.458Z,17.77
2019-02-08T00:04:13.839Z,18.90
2019-02-08T00:06:44.130Z,17.07
2019-02-08T00:09:14.457Z,16.67
2019-02-08T00:11:44.750Z,16.93
2019-02-08T00:14:15.053Z,16.80
2019-02-08T00:16:45.340Z,16.27
2019-02-08T00:19:15.618Z,16.37
2019-02-08T00:21:45.900Z,15.77
2019-02-08T00:24:16.244Z,17.83
2019-02-08T00:26:46.518Z,16.17
2019-02-08T00:29:16.808Z,17.63
2019-02-08T00:31:47.086Z,16.33
2019-02-08T00:34:17.399Z,17.63
2019-02-08T00:36:47.690Z,16.03
2019-02-08T00:39:17.967Z,16.97
2019-02-08T00:41:48.619Z,15.00
2019-02-08T00:44:19.348Z,17.90
2019-02-08T00:46:49.854Z,16.07
2019-02-08T00:49:20.128Z,15.87
2019-02-08T00:51:50.424Z,16.87
2019-02-08T00:54:20.778Z,15.17
2019-02-08T00:56:51.404Z,15.67
2019-02-08T00:59:21.688Z,16.63
2019-02-08T01:01:51.972Z,17.17
2019-02-08T01:04:22.253Z,17.03
2019-02-08T01:06:52.574Z,17.93
2019-02-08T01:09:22.868Z,15.47
2019-02-08T01:11:53.433Z,15.33
2019-02-08T01:14:23.728Z,16.07
2019-02-08T01:16:54.032Z,16.37
2019-02-08T01:19:24.320Z,15.97
2019-02-08T01:21:54.615Z,15.33
2019-02-08T01:24:24.917Z,15.57
2019-02-08T01:26:56.265Z,14.77
2019-02-08T01:29:26.561Z,16.87
2019-02-08T01:31:56.859Z,17.67
2019-02-08T01:34:27.156Z,17.53
2019-02-08T01:36:57.590Z,16.10
2019-02-08T01:39:27.856Z,15.13
2019-02-08T01:41:58.129Z,15.77
2019-02-08T01:44:28.438Z,15.87
2019-02-08T01:46:58.716Z,15.90
2019-02-08T01:49:28.982Z,15.67
2019-02-08T01:51:59.274Z,16.80
2019-02-08T01:54:29.596Z,16.03
2019-02-08T01:56:59.877Z,15.27
2019-02-08T01:59:30.156Z,15.23
2019-02-08T02:02:00.456Z,16.03
2019-02-08T02:04:30.751Z,14.60
2019-02-08T02:07:01.092Z,15.40
2019-02-08T02:09:31.419Z,16.27
2019-02-08T02:12:01.697Z,14.97
2019-02-08T02:14:32.154Z,14.20
2019-02-08T02:17:02.594Z,14.43
2019-02-08T02:19:32.878Z,15.90
2019-02-08T02:22:03.163Z,15.43
2019-02-08T02:24:33.460Z,14.23
2019-02-08T02:27:03.787Z,15.73
2019-02-08T02:29:34.135Z,15.17
2019-02-08T02:32:05.400Z,14.97
2019-02-08T02:34:35.678Z,14.10
2019-02-08T02:37:05.980Z,14.97
2019-02-08T02:39:36.301Z,15.77
2019-02-08T02:42:06.581Z,14.90
2019-02-08T02:44:36.864Z,15.43
2019-02-08T02:47:07.136Z,14.87
2019-02-08T02:49:37.461Z,15.20
2019-02-08T02:52:07.786Z,13.60
2019-02-08T02:54:38.224Z,14.00
2019-02-08T02:57:08.525Z,13.57
2019-02-08T02:59:38.827Z,13.77
2019-02-08T03:02:09.141Z,13.63
2019-02-08T03:04:39.417Z,14.90
2019-02-08T03:07:09.716Z,14.40
2019-02-08T03:09:39.991Z,14.07
2019-02-08T03:12:10.278Z,14.20
2019-02-08T03:14:40.641Z,13.90
2019-02-08T03:17:10.935Z,13.80
2019-02-08T03:19:41.239Z,13.80
2019-02-08T03:22:11.516Z,13.97
2019-02-08T03:24:41.804Z,13.40
2019-02-08T03:27:12.095Z,13.97
2019-02-08T03:29:42.428Z,13.60
2019-02-08T03:32:12.703Z,13.97
2019-02-08T03:34:42.987Z,12.77
2019-02-08T03:37:13.271Z,13.13
2019-02-08T03:39:43.606Z,15.10
2019-02-08T03:42:13.903Z,12.73
2019-02-08T03:44:44.238Z,14.30
2019-02-08T03:47:14.525Z,13.40
2019-02-08T03:49:44.817Z,12.37
2019-02-08T03:52:15.127Z,14.83
2019-02-08T03:54:45.415Z,13.23
2019-02-08T03:57:15.753Z,13.80
2019-02-08T03:59:46.051Z,13.53
2019-02-08T04:02:16.323Z,13.80
2019-02-08T04:04:46.587Z,13.83
2019-02-08T04:07:16.886Z,14.23
2019-02-08T04:09:47.283Z,13.03
2019-02-08T04:12:17.915Z,12.90
2019-02-08T04:14:48.197Z,12.90
2019-02-08T04:17:18.510Z,14.20
2019-02-08T04:19:48.860Z,12.50
2019-02-08T04:22:19.158Z,12.93
2019-02-08T04:24:49.483Z,13.60
2019-02-08T04:27:19.818Z,13.27
2019-02-08T04:29:50.088Z,12.93
2019-02-08T04:32:20.385Z,13.07
2019-02-08T04:34:50.686Z,12.17
2019-02-08T04:37:21.098Z,13.87
2019-02-08T04:39:51.439Z,13.07
2019-02-08T04:42:21.999Z,12.60
2019-02-08T04:44:52.290Z,12.50
2019-02-08T04:47:22.617Z,13.63
2019-02-08T04:49:52.909Z,13.17
2019-02-08T04:52:24.438Z,13.43
2019-02-08T04:54:54.868Z,13.43
2019-02-08T04:57:25.212Z,15.10
2019-02-08T04:59:55.774Z,17.13
2019-02-08T05:02:26.116Z,15.17
2019-02-08T05:04:56.513Z,14.63
2019-02-08T05:07:27.419Z,14.63
2019-02-08T05:09:57.832Z,15.23
2019-02-08T05:12:28.531Z,16.17
2019-02-08T05:14:58.783Z,16.13
2019-02-08T05:17:29.095Z,15.73
2019-02-08T05:19:59.383Z,18.67
2019-02-08T05:22:29.659Z,15.93
2019-02-08T05:24:59.956Z,16.40
2019-02-08T05:27:30.222Z,16.30
2019-02-08T05:30:00.551Z,16.90
2019-02-08T05:32:30.804Z,16.50
2019-02-08T05:35:01.110Z,21.53
2019-02-08T05:37:31.377Z,20.97
2019-02-08T05:40:01.776Z,20.30
2019-02-08T05:42:32.110Z,18.80
2019-02-08T05:45:02.473Z,17.50
2019-02-08T05:47:33.338Z,18.17
2019-02-08T05:50:05.238Z,18.50
2019-02-08T05:52:36.023Z,17.80
2019-02-08T05:55:10.738Z,16.43
2019-02-08T05:57:41.101Z,16.87
2019-02-08T06:00:24.927Z,15.47
2019-02-08T06:02:55.327Z,15.10
2019-02-08T06:05:25.591Z,16.63
2019-02-08T06:07:55.878Z,17.43
2019-02-08T06:10:26.190Z,17.10
2019-02-08T06:12:56.975Z,17.90
2019-02-08T06:15:27.442Z,18.77
2019-02-08T06:17:57.743Z,20.27
2019-02-08T06:20:28.034Z,19.73
2019-02-08T06:22:59.299Z,18.73
2019-02-08T06:25:29.611Z,20.40
2019-02-08T06:28:00.854Z,19.43
2019-02-08T06:30:31.642Z,19.30
2019-02-08T06:33:01.944Z,19.37
2019-02-08T06:35:32.197Z,20.60
2019-02-08T06:38:02.480Z,20.23
2019-02-08T06:40:39.305Z,20.13
2019-02-08T06:43:10.524Z,19.27
2019-02-08T06:45:40.818Z,18.33
2019-02-08T06:48:11.739Z,19.43
2019-02-08T06:50:41.999Z,20.03
2019-02-08T06:53:12.355Z,18.63
2019-02-08T06:55:42.647Z,17.97
2019-02-08T06:58:14.911Z,18.60
2019-02-08T07:00:52.112Z,19.03
2019-02-08T07:03:35.994Z,20.63
2019-02-08T07:06:10.713Z,18.60
2019-02-08T07:08:51.417Z,19.67
2019-02-08T07:11:39.460Z,19.40
2019-02-08T07:14:23.609Z,22.93
2019-02-08T07:17:13.947Z,21.50
2019-02-08T07:19:55.186Z,21.23
2019-02-08T07:22:43.600Z,20.60
2019-02-08T07:25:30.719Z,20.27
2019-02-08T07:28:08.650Z,19.73
2019-02-08T07:30:59.709Z,19.23
2019-02-08T07:33:31.650Z,19.97
2019-02-08T07:36:03.565Z,18.53
2019-02-08T07:38:38.422Z,19.93
2019-02-08T07:41:25.602Z,19.97
2019-02-08T07:43:57.552Z,19.57
2019-02-08T07:46:29.486Z,19.80
2019-02-08T07:49:01.397Z,18.37
2019-02-08T07:51:39.296Z,19.33
2019-02-08T07:54:23.353Z,17.53
2019-02-08T07:57:07.294Z,17.27
2019-02-08T07:59:42.239Z,18.70
2019-02-08T08:02:20.543Z,16.87
2019-02-08T08:05:10.568Z,17.60
2019-02-08T08:07:42.510Z,17.40
2019-02-08T08:10:28.314Z,16.77
2019-02-08T08:13:02.938Z,17.03
2019-02-08T08:15:37.859Z,17.50
2019-02-08T08:18:09.828Z,18.67
2019-02-08T08:20:41.751Z,17.17
2019-02-08T08:23:25.918Z,18.37
2019-02-08T08:26:13.267Z,18.23
2019-02-08T08:29:01.704Z,17.40
2019-02-08T08:31:35.985Z,16.43
2019-02-08T08:34:12.479Z,15.80
2019-02-08T08:37:05.443Z,16.03
2019-02-08T08:39:47.961Z,16.00
2019-02-08T08:42:21.504Z,15.07
2019-02-08T08:45:00.866Z,16.83
2019-02-08T08:47:49.347Z,15.90
2019-02-08T08:50:25.872Z,15.13
2019-02-08T08:53:05.491Z,16.37
2019-02-08T08:55:54.298Z,16.57
2019-02-08T08:58:39.772Z,14.43
2019-02-08T09:01:31.273Z,16.77
2019-02-08T09:04:25.940Z,15.30
2019-02-08T09:07:16.260Z,16.77
2019-02-08T09:10:06.266Z,15.10
2019-02-08T09:12:48.816Z,14.97
2019-02-08T09:15:37.379Z,14.67
2019-02-08T09:18:22.789Z,15.27
2019-02-08T09:21:14.276Z,15.57
2019-02-08T09:23:47.825Z,15.07
2019-02-08T09:26:27.653Z,14.80
2019-02-08T09:29:07.034Z,16.47
2019-02-08T09:32:00.111Z,15.00
2019-02-08T09:34:42.551Z,13.97
2019-02-08T09:37:25.350Z,16.23
2019-02-08T09:40:13.900Z,15.17
2019-02-08T09:43:13.185Z,14.47
2019-02-08T09:46:06.193Z,15.73
2019-02-08T09:48:57.833Z,14.80
2019-02-08T09:51:54.319Z,14.30
2019-02-08T09:54:39.388Z,14.03
2019-02-08T09:57:21.979Z,15.13
2019-02-08T10:00:04.249Z,14.63
2019-02-08T10:03:03.225Z,13.93
2019-02-08T10:05:57.268Z,14.40
2019-02-08T10:09:02.521Z,13.73
2019-02-08T10:11:53.655Z,16.17
2019-02-08T10:14:48.121Z,14.53
2019-02-08T10:17:53.591Z,14.87
2019-02-08T10:20:29.633Z,14.37
2019-02-08T10:23:25.233Z,13.23
2019-02-08T10:26:07.610Z,14.20
2019-02-08T10:29:03.806Z,14.87
2019-02-08T10:31:46.506Z,13.57
2019-02-08T10:34:20.125Z,14.17
2019-02-08T10:37:06.027Z,13.33
2019-02-08T10:40:11.129Z,13.43
2019-02-08T10:43:02.831Z,14.67
2019-02-08T10:45:57.598Z,13.47
2019-02-08T10:48:52.270Z,13.07
2019-02-08T10:51:42.287Z,13.50
2019-02-08T10:54:33.758Z,12.93
2019-02-08T10:57:27.008Z,12.80
2019-02-08T11:00:20.130Z,12.83
2019-02-08T11:03:12.057Z,12.93
2019-02-08T11:06:02.090Z,12.30
2019-02-08T11:08:38.099Z,12.00
2019-02-08T11:11:31.051Z,12.77
2019-02-08T11:14:21.150Z,12.90
2019-02-08T11:17:11.415Z,12.80
2019-02-08T11:19:40.762Z,12.70
2019-02-08T11:22:11.083Z,12.83
2019-02-08T11:24:41.353Z,12.53
2019-02-08T11:27:11.675Z,12.30
2019-02-08T11:29:41.954Z,11.13
2019-02-08T11:32:12.250Z,11.60
2019-02-08T11:34:42.518Z,12.33
2019-02-08T11:37:12.817Z,11.40
2019-02-08T11:39:43.155Z,10.87
2019-02-08T11:42:13.431Z,11.37
2019-02-08T11:44:43.728Z,11.60
2019-02-08T11:47:13.985Z,11.90
2019-02-08T11:49:44.365Z,10.83
2019-02-08T11:52:15.773Z,11.03
2019-02-08T11:54:46.063Z,11.57
2019-02-08T11:57:16.403Z,10.53
2019-02-08T11:59:47.124Z,10.10
2019-02-08T12:02:17.423Z,10.13
2019-02-08T12:04:47.716Z,9.63
2019-02-08T12:07:18.057Z,10.30
2019-02-08T12:09:48.383Z,10.90
2019-02-08T12:12:18.663Z,10.10
2019-02-08T12:14:48.998Z,10.10
2019-02-08T12:17:19.341Z,10.17
2019-02-08T12:19:49.657Z,9.73
2019-02-08T12:22:19.985Z,9.70
2019-02-08T12:24:50.262Z,11.80
2019-02-08T12:27:20.583Z,10.53
2019-02-08T12:29:50.855Z,10.83
2019-02-08T12:32:21.157Z,9.73
2019-02-08T12:34:51.450Z,10.10
2019-02-08T12:37:21.737Z,10.03
2019-02-08T12:39:52.005Z,10.57
2019-02-08T12:42:22.303Z,9.97
2019-02-08T12:44:52.622Z,10.00
2019-02-08T12:47:22.920Z,9.80
2019-02-08T12:49:53.193Z,9.93
2019-02-08T12:52:23.473Z,9.30
2019-02-08T12:54:53.985Z,8.73
2019-02-08T12:57:24.370Z,9.37
2019-02-08T12:59:54.720Z,8.13
2019-02-08T13:02:24.998Z,8.23
2019-02-08T13:04:55.292Z,8.47
2019-02-08T13:07:25.574Z,8.30
2019-02-08T13:09:55.870Z,8.20
2019-02-08T13:12:26.184Z,7.63
2019-02-08T13:14:56.447Z,8.50
2019-02-08T13:17:26.731Z,8.33
2019-02-08T13:19:57.005Z,8.30
2019-02-08T13:22:27.900Z,8.70
2019-02-08T13:24:58.176Z,7.53
2019-02-08T13:27:29.556Z,7.97
2019-02-08T13:29:59.863Z,8.37
2019-02-08T13:32:30.143Z,7.57
2019-02-08T13:35:00.470Z,9.17
2019-02-08T13:37:33.480Z,7.27
2019-02-08T13:40:05.601Z,7.97
2019-02-08T13:42:35.923Z,7.80
2019-02-08T13:45:09.541Z,8.30
2019-02-08T13:47:39.850Z,7.90
2019-02-08T13:50:16.002Z,7.57
2019-02-08T13:52:46.284Z,6.27
2019-02-08T13:55:19.368Z,6.80
2019-02-08T13:57:49.646Z,7.53
2019-02-08T14:00:39.833Z,7.07
2019-02-08T14:03:10.129Z,6.63
2019-02-08T14:05:40.450Z,7.40
2019-02-08T14:08:10.892Z,6.70
2019-02-08T14:10:41.336Z,6.97
2019-02-08T14:13:11.608Z,6.17
2019-02-08T14:15:41.882Z,6.23
2019-02-08T14:18:12.211Z,6.80
2019-02-08T14:20:42.495Z,6.90
2019-02-08T14:23:12.798Z,6.93
2019-02-08T14:25:43.056Z,6.83
2019-02-08T14:28:13.589Z,6.60
2019-02-08T14:30:44.643Z,6.87
2019-02-08T14:33:15.380Z,6.37
2019-02-08T14:35:45.758Z,7.67
2019-02-08T14:38:19.027Z,8.10
2019-02-08T14:40:51.223Z,7.77
2019-02-08T14:43:23.283Z,7.43
2019-02-08T14:45:54.315Z,7.00
2019-02-08T14:48:24.693Z,8.13
2019-02-08T14:50:55.073Z,6.47
2019-02-08T14:53:25.392Z,7.20
2019-02-08T14:55:55.692Z,6.60
2019-02-08T14:58:26.013Z,8.40
2019-02-08T15:00:56.334Z,8.40
2019-02-08T15:03:26.661Z,10.40
2019-02-08T15:05:56.968Z,10.83
2019-02-08T15:08:27.264Z,13.17
2019-02-08T15:10:58.117Z,21.13
2019-02-08T15:13:28.498Z,17.77
2019-02-08T15:15:58.795Z,12.60
2019-02-08T15:18:29.105Z,11.93
2019-02-08T15:21:00.380Z,10.93
2019-02-08T15:23:30.732Z,13.63
2019-02-08T15:26:01.284Z,13.73
2019-02-08T15:28:31.601Z,14.20
2019-02-08T15:31:01.873Z,12.57
2019-02-08T15:33:32.150Z,10.80
2019-02-08T15:36:02.451Z,11.37
2019-02-08T15:38:32.739Z,11.00
2019-02-08T15:41:03.232Z,12.40
2019-02-08T15:43:34.053Z,13.87
2019-02-08T15:46:04.555Z,13.57
2019-02-08T15:48:35.387Z,12.20
2019-02-08T15:51:05.666Z,12.17
2019-02-08T15:53:35.937Z,11.30
2019-02-08T15:56:09.841Z,11.07
2019-02-08T15:58:40.283Z,10.87
2019-02-08T16:01:11.042Z,11.20
2019-02-08T16:03:41.785Z,9.93
2019-02-08T16:06:12.069Z,10.17
2019-02-08T16:08:42.420Z,11.17
2019-02-08T16:11:12.720Z,11.17
2019-02-08T16:13:43.030Z,9.20
2019-02-08T16:16:13.303Z,9.67
2019-02-08T16:18:43.662Z,10.00
2019-02-08T16:21:13.956Z,10.17
2019-02-08T16:23:44.329Z,10.10
2019-02-08T16:26:14.700Z,9.83
2019-02-08T16:28:45.016Z,10.70
2019-02-08T16:31:15.282Z,10.40
2019-02-08T16:33:45.556Z,10.43
2019-02-08T16:36:15.861Z,10.63
2019-02-08T16:38:46.199Z,9.60
2019-02-08T16:41:16.502Z,10.17
2019-02-08T16:43:47.103Z,10.07
2019-02-08T16:46:17.415Z,10.90
2019-02-08T16:48:47.816Z,10.63
2019-02-08T16:51:18.264Z,9.73
2019-02-08T16:53:53.632Z,9.87
2019-02-08T16:56:20.699Z,14.07
2019-02-08T16:58:50.972Z,13.43
2019-02-08T17:01:21.410Z,26.00
2019-02-08T17:03:51.854Z,26.77
2019-02-08T17:06:22.175Z,21.27
2019-02-08T17:08:52.442Z,25.43
2019-02-08T17:11:22.764Z,35.67
2019-02-08T17:13:53.073Z,32.27
2019-02-08T17:16:25.054Z,26.80
2019-02-08T17:18:55.388Z,29.77
2019-02-08T17:21:25.788Z,25.17
2019-02-08T17:23:56.623Z,23.10
2019-02-08T17:26:26.998Z,23.10
2019-02-08T17:28:57.284Z,23.53
2019-02-08T17:31:27.568Z,27.20
2019-02-08T17:33:57.997Z,26.37
2019-02-08T17:36:28.419Z,23.30
2019-02-08T17:38:58.709Z,22.80
2019-02-08T17:41:29.079Z,23.70
2019-02-08T17:43:59.499Z,23.63
2019-02-08T17:46:29.790Z,24.57
2019-02-08T17:49:00.380Z,21.63
2019-02-08T17:51:30.666Z,20.73
2019-02-08T17:54:01.580Z,19.07
2019-02-08T17:56:31.960Z,21.37
2019-02-08T17:59:02.395Z,21.57
2019-02-08T18:01:32.687Z,21.53
2019-02-08T18:04:03.007Z,28.67
2019-02-08T18:06:33.370Z,29.50
2019-02-08T18:09:05.332Z,22.67
2019-02-08T18:11:35.755Z,28.63
2019-02-08T18:14:06.999Z,33.03
2019-02-08T18:16:37.272Z,45.13
2019-02-08T18:19:07.619Z,57.87
2019-02-08T18:21:38.166Z,70.83
2019-02-08T18:24:08.454Z,54.20
2019-02-08T18:26:39.154Z,42.13
2019-02-08T18:29:09.454Z,38.33
2019-02-08T18:31:39.859Z,40.50
2019-02-08T18:34:10.441Z,35.07
2019-02-08T18:36:41.018Z,33.17
2019-02-08T18:39:11.362Z,45.00
2019-02-08T18:41:41.606Z,49.07
2019-02-08T18:44:11.900Z,41.37
2019-02-08T18:46:42.198Z,42.13
2019-02-08T18:49:13.450Z,37.33
2019-02-08T18:51:43.981Z,28.83
2019-02-08T18:54:14.349Z,30.50
2019-02-08T18:56:45.729Z,47.70
2019-02-08T18:59:17.088Z,77.70
2019-02-08T19:01:47.428Z,52.57
2019-02-08T19:04:17.778Z,38.53
2019-02-08T19:06:49.284Z,43.20
2019-02-08T19:09:19.613Z,63.90
2019-02-08T19:11:49.934Z,38.57
2019-02-08T19:14:21.305Z,36.40
2019-02-08T19:16:52.575Z,32.73
2019-02-08T19:19:22.945Z,28.10
2019-02-08T19:21:53.238Z,27.87
2019-02-08T19:24:23.826Z,25.87
2019-02-08T19:26:54.744Z,27.50
2019-02-08T19:29:25.541Z,28.30
2019-02-08T19:31:55.848Z,30.37
2019-02-08T19:34:26.170Z,29.93
2019-02-08T19:36:56.548Z,27.67
2019-02-08T19:39:26.842Z,24.63
2019-02-08T19:41:58.681Z,23.10
2019-02-08T19:44:28.976Z,19.70
2019-02-08T19:47:00.400Z,23.57
2019-02-08T19:49:31.913Z,21.93
2019-02-08T19:52:02.286Z,23.33
2019-02-08T19:54:33.884Z,23.13
2019-02-08T19:57:04.687Z,21.33
2019-02-08T19:59:35.681Z,21.43
2019-02-08T20:02:06.126Z,20.87
2019-02-08T20:04:37.101Z,21.13
2019-02-08T20:07:08.126Z,20.20
2019-02-08T20:09:38.547Z,19.87
2019-02-08T20:12:10.261Z,20.43
2019-02-08T20:14:40.586Z,21.63
2019-02-08T20:17:10.908Z,22.23
2019-02-08T20:19:41.226Z,21.10
2019-02-08T20:22:11.572Z,21.43
2019-02-08T20:24:42.539Z,19.67
2019-02-08T20:27:13.122Z,38.80
2019-02-08T20:29:43.428Z,31.03
2019-02-08T20:32:15.481Z,31.70
2019-02-08T20:34:58.155Z,31.43
2019-02-08T20:37:28.529Z,36.50
2019-02-08T20:39:58.939Z,31.43
2019-02-08T20:42:29.187Z,33.93
2019-02-08T20:44:59.701Z,35.73
2019-02-08T20:47:30.113Z,57.33
2019-02-08T20:50:00.515Z,38.73
2019-02-08T20:52:31.490Z,55.37
2019-02-08T20:55:01.839Z,45.07
2019-02-08T20:57:33.218Z,50.83
2019-02-08T21:00:06.625Z,45.80
2019-02-08T21:02:36.927Z,53.87
2019-02-08T21:05:07.590Z,43.57
2019-02-08T21:07:38.157Z,41.83
2019-02-08T21:10:10.975Z,39.70
2019-02-08T21:12:42.026Z,41.80
2019-02-08T21:15:20.303Z,35.33
2019-02-08T21:17:50.638Z,34.23
2019-02-08T21:20:21.132Z,31.30
2019-02-08T21:22:53.032Z,27.83
2019-02-08T21:25:37.808Z,29.13
2019-02-08T21:28:08.714Z,23.90
2019-02-08T21:30:40.027Z,27.00
2019-02-08T21:33:12.116Z,27.03
2019-02-08T21:35:42.973Z,30.53
2019-02-08T21:38:13.966Z,32.37
2019-02-08T21:40:44.305Z,29.10
2019-02-08T21:43:15.417Z,24.53
2019-02-08T21:45:46.411Z,23.37
2019-02-08T21:48:16.850Z,24.57
2019-02-08T21:50:47.833Z,21.50
2019-02-08T21:53:18.690Z,22.87
2019-02-08T21:55:49.106Z,26.27
2019-02-08T21:58:19.803Z,25.83
2019-02-08T22:00:53.178Z,22.23
2019-02-08T22:03:23.559Z,21.80
2019-02-08T22:05:59.899Z,23.20
2019-02-08T22:08:30.207Z,21.90
2019-02-08T22:11:00.587Z,18.87
2019-02-08T22:13:31.396Z,19.87
2019-02-08T22:16:01.888Z,20.50
2019-02-08T22:18:32.175Z,19.60
2019-02-08T22:21:02.492Z,23.60
2019-02-08T22:23:32.754Z,22.60
2019-02-08T22:26:03.044Z,20.37
2019-02-08T22:28:33.473Z,21.57
2019-02-08T22:31:03.762Z,87.10
2019-02-08T22:33:34.064Z,61.57
2019-02-08T22:36:04.380Z,78.57
2019-02-08T22:38:34.665Z,54.70
2019-02-08T22:41:05.084Z,35.97
2019-02-08T22:43:35.386Z,32.10
2019-02-08T22:46:05.673Z,28.57
2019-02-08T22:48:35.980Z,23.40
2019-02-08T22:51:06.271Z,20.53
2019-02-08T22:53:37.732Z,20.00
2019-02-08T22:56:08.055Z,20.13
2019-02-08T22:58:38.341Z,17.60
2019-02-08T23:01:14.784Z,17.50
2019-02-08T23:03:45.083Z,18.43
2019-02-08T23:06:15.377Z,17.93
2019-02-08T23:08:45.643Z,18.13
2019-02-08T23:11:15.942Z,17.27
2019-02-08T23:13:46.263Z,17.07
2019-02-08T23:16:16.592Z,18.23
2019-02-08T23:18:47.206Z,17.03
2019-02-08T23:21:17.500Z,16.80
2019-02-08T23:23:47.843Z,17.83
2019-02-08T23:26:19.285Z,16.47
2019-02-08T23:28:49.673Z,17.17
2019-02-08T23:31:20.013Z,16.90
2019-02-08T23:33:51.956Z,17.50
2019-02-08T23:36:22.320Z,16.80
2019-02-08T23:38:52.610Z,16.13
2019-02-08T23:41:23.109Z,15.97
2019-02-08T23:43:53.539Z,15.43
2019-02-08T23:46:24.146Z,17.17
2019-02-08T23:48:54.477Z,16.43
2019-02-08T23:51:24.745Z,17.47
2019-02-08T23:53:55.034Z,16.40
2019-02-08T23:56:25.296Z,17.53
2019-02-08T23:58:55.568Z,15.33
